createdAt,value
2023-02-11T00:01:13.118Z,98820.34
2023-02-11T00:03:43.793Z,98821.19
2023-02-11T00:06:17.151Z,98823.72
2023-02-11T00:08:47.970Z,98816.00
2023-02-11T00:11:20.095Z,98828.88
2023-02-11T00:13:51.272Z,98819.44
2023-02-11T00:16:23.503Z,98826.28
2023-02-11T00:18:54.430Z,98836.59
2023-02-11T00:21:29.408Z,98821.97
2023-02-11T00:24:02.462Z,98820.28
2023-02-11T00:26:35.390Z,98822.84
2023-02-11T00:29:07.386Z,98821.13
2023-02-11T00:31:38.058Z,98816.00
2023-02-11T00:34:09.253Z,98822.00
2023-02-11T00:36:42.712Z,98818.59
2023-02-11T00:39:13.552Z,98822.06
2023-02-11T00:41:44.171Z,98814.41
2023-02-11T00:44:16.599Z,98819.53
2023-02-11T00:46:47.630Z,98814.41
2023-02-11T00:49:18.746Z,98813.53
2023-02-11T00:51:51.944Z,98806.66
2023-02-11T00:54:23.879Z,98811.81
2023-02-11T00:56:54.479Z,98806.69
2023-02-11T00:59:25.201Z,98810.09
2023-02-11T01:01:55.823Z,98809.25
2023-02-11T01:04:26.709Z,98804.09
2023-02-11T01:06:59.824Z,98804.94
2023-02-11T01:09:30.385Z,98808.38
2023-02-11T01:12:00.945Z,98792.94
2023-02-11T01:14:31.637Z,98791.25
2023-02-11T01:17:02.132Z,98793.81
2023-02-11T01:19:32.772Z,98795.53
2023-02-11T01:22:05.904Z,98792.06
2023-02-11T01:24:36.540Z,98794.63
2023-02-11T01:27:07.321Z,98784.34
2023-02-11T01:29:37.886Z,98771.47
2023-02-11T01:32:08.779Z,98786.03
2023-02-11T01:34:39.433Z,98788.63
2023-02-11T01:37:12.759Z,98774.91
2023-02-11T01:39:43.280Z,98780.06
2023-02-11T01:42:19.163Z,98770.66
2023-02-11T01:44:52.499Z,98766.34
2023-02-11T01:47:24.064Z,98745.81
2023-02-11T01:49:58.885Z,98772.38
2023-02-11T01:52:39.871Z,98774.97
2023-02-11T01:55:26.472Z,98768.06
2023-02-11T01:57:59.990Z,98761.25
2023-02-11T02:00:36.844Z,98770.66
2023-02-11T02:03:11.351Z,98765.47
2023-02-11T02:05:49.044Z,98767.19
2023-02-11T02:08:29.773Z,98758.63
2023-02-11T02:11:01.264Z,98762.94
2023-02-11T02:13:34.508Z,98759.50
2023-02-11T02:16:29.267Z,98759.47
2023-02-11T02:19:24.592Z,98756.91
2023-02-11T02:22:36.864Z,98753.44
2023-02-11T02:25:45.377Z,98762.00
2023-02-11T02:28:36.713Z,98759.44
2023-02-11T02:31:29.024Z,98752.63
2023-02-11T02:34:05.456Z,98748.34
2023-02-11T02:36:45.648Z,98751.75
2023-02-11T02:39:20.520Z,98765.50
2023-02-11T02:41:52.918Z,98756.94
2023-02-11T02:44:24.395Z,98759.53
2023-02-11T02:46:54.972Z,98755.22
2023-02-11T02:49:28.243Z,98757.72
2023-02-11T02:52:09.928Z,98755.09
2023-02-11T02:55:20.995Z,98761.13
2023-02-11T02:58:08.840Z,98751.72
2023-02-11T03:00:47.139Z,98760.28
2023-02-11T03:03:25.402Z,98756.84
2023-02-11T03:06:04.501Z,98764.56
2023-02-11T03:08:41.221Z,98756.81
2023-02-11T03:11:13.346Z,98763.69
2023-02-11T03:13:45.660Z,98757.66
2023-02-11T03:16:20.808Z,98761.00
2023-02-11T03:18:52.831Z,98765.31
2023-02-11T03:21:28.046Z,98760.19
2023-02-11T03:23:59.772Z,98766.25
2023-02-11T03:26:34.368Z,98759.38
2023-02-11T03:29:11.975Z,98758.56
2023-02-11T03:31:50.728Z,98761.91
2023-02-11T03:34:29.841Z,98755.00
2023-02-11T03:37:06.809Z,98751.53
2023-02-11T03:39:41.988Z,98758.38
2023-02-11T03:42:13.968Z,98764.41
2023-02-11T03:44:50.062Z,98761.00
2023-02-11T03:47:24.253Z,98755.00
2023-02-11T03:49:56.564Z,98761.84
2023-02-11T03:52:30.991Z,98766.97
2023-02-11T03:55:05.642Z,98764.38
2023-02-11T03:57:37.060Z,98760.06
2023-02-11T04:00:09.667Z,98757.47
2023-02-11T04:02:44.403Z,98760.00
2023-02-11T04:05:18.012Z,98763.41
2023-02-11T04:07:51.217Z,98760.81
2023-02-11T04:10:21.902Z,98754.81
2023-02-11T04:12:52.665Z,98762.47
2023-02-11T04:15:23.366Z,98766.75
2023-02-11T04:17:54.324Z,98754.78
2023-02-11T04:20:24.982Z,98753.91
2023-02-11T04:22:58.408Z,98741.13
2023-02-11T04:25:29.507Z,98757.38
2023-02-11T04:28:00.119Z,98756.53
2023-02-11T04:30:31.083Z,98752.28
2023-02-11T04:33:02.235Z,98743.75
2023-02-11T04:35:32.812Z,98748.00
2023-02-11T04:38:05.924Z,98748.00
2023-02-11T04:40:36.498Z,98742.84
2023-02-11T04:43:06.943Z,98737.75
2023-02-11T04:45:37.992Z,98738.63
2023-02-11T04:48:08.842Z,98734.38
2023-02-11T04:50:39.428Z,98731.81
2023-02-11T04:53:12.581Z,98721.56
2023-02-11T04:55:43.216Z,98724.97
2023-02-11T04:58:13.675Z,98730.09
2023-02-11T05:00:44.294Z,98719.81
2023-02-11T05:03:15.202Z,98717.28
2023-02-11T05:05:46.271Z,98720.66
2023-02-11T05:08:19.469Z,98708.69
2023-02-11T05:10:50.789Z,98705.28
2023-02-11T05:13:21.197Z,98717.22
2023-02-11T05:15:52.253Z,98703.53
2023-02-11T05:18:23.004Z,98700.09
2023-02-11T05:20:53.680Z,98704.41
2023-02-11T05:23:26.828Z,98714.66
2023-02-11T05:25:57.395Z,98709.50
2023-02-11T05:28:27.867Z,98712.03
2023-02-11T05:30:59.041Z,98716.31
2023-02-11T05:33:29.573Z,98718.03
2023-02-11T05:36:02.446Z,98716.31
2023-02-11T05:38:36.110Z,98720.59
2023-02-11T05:41:08.022Z,98717.16
2023-02-11T05:43:38.559Z,98719.72
2023-02-11T05:46:09.397Z,98725.69
2023-02-11T05:48:40.135Z,98722.31
2023-02-11T05:51:10.932Z,98716.34
2023-02-11T05:53:44.209Z,98720.63
2023-02-11T05:56:14.816Z,98719.78
2023-02-11T05:58:45.362Z,98722.38
2023-02-11T06:01:15.937Z,98713.81
2023-02-11T06:03:46.596Z,98720.72
2023-02-11T06:06:17.262Z,98718.25
2023-02-11T06:08:50.497Z,98720.00
2023-02-11T06:11:21.442Z,98712.34
2023-02-11T06:13:51.965Z,98714.94
2023-02-11T06:16:22.742Z,98708.91
2023-02-11T06:18:53.382Z,98706.34
2023-02-11T06:21:33.525Z,98705.50
2023-02-11T06:24:13.498Z,98701.22
2023-02-11T06:26:44.265Z,98709.81
2023-02-11T06:29:14.734Z,98702.91
2023-02-11T06:31:45.696Z,98699.47
2023-02-11T06:34:16.533Z,98705.44
2023-02-11T06:36:47.181Z,98702.81
2023-02-11T06:39:20.387Z,98707.06
2023-02-11T06:41:50.909Z,98711.34
2023-02-11T06:44:21.345Z,98709.56
2023-02-11T06:46:52.059Z,98696.47
2023-02-11T06:49:22.713Z,98704.97
2023-02-11T06:51:53.425Z,98713.44
2023-02-11T06:54:26.623Z,98701.19
2023-02-11T06:56:57.360Z,98707.81
2023-02-11T06:59:27.862Z,98704.00
2023-02-11T07:01:58.530Z,98698.63
2023-02-11T07:04:29.055Z,98689.91
2023-02-11T07:06:59.752Z,98698.47
2023-02-11T07:09:32.990Z,98707.91
2023-02-11T07:12:03.601Z,98712.03
2023-02-11T07:14:34.171Z,98722.81
2023-02-11T07:17:05.165Z,98717.28
2023-02-11T07:19:35.789Z,98723.09
2023-02-11T07:22:06.487Z,98712.56
2023-02-11T07:24:39.655Z,98723.56
2023-02-11T07:27:10.321Z,98716.47
2023-02-11T07:29:40.839Z,98718.47
2023-02-11T07:32:11.678Z,98715.03
2023-02-11T07:34:42.381Z,98710.94
2023-02-11T07:37:12.987Z,98716.63
2023-02-11T07:39:46.313Z,98720.16
2023-02-11T07:42:17.096Z,98717.25
2023-02-11T07:44:50.245Z,98722.03
2023-02-11T07:47:21.241Z,98720.56
2023-02-11T07:49:53.926Z,98721.09
2023-02-11T07:52:26.040Z,98720.91
2023-02-11T07:55:00.140Z,98721.75
2023-02-11T07:57:30.754Z,98710.53
2023-02-11T08:00:01.230Z,98708.47
2023-02-11T08:02:41.383Z,98710.69
2023-02-11T08:05:12.102Z,98718.72
2023-02-11T08:07:42.651Z,98713.78
2023-02-11T08:10:15.877Z,98721.50
2023-02-11T08:12:46.494Z,98715.13
2023-02-11T08:15:17.456Z,98708.69
2023-02-11T08:17:48.230Z,98704.91
2023-02-11T08:20:18.812Z,98699.31
2023-02-11T08:22:49.599Z,98696.88
2023-02-11T08:25:22.828Z,98699.53
2023-02-11T08:27:53.552Z,98694.03
2023-02-11T08:30:26.382Z,98682.53
2023-02-11T08:32:58.123Z,98681.72
2023-02-11T08:35:28.673Z,98679.56
2023-02-11T08:37:59.535Z,98681.06
2023-02-11T08:40:32.984Z,98676.31
2023-02-11T08:43:05.223Z,98681.25
2023-02-11T08:45:37.448Z,98671.47
2023-02-11T08:48:08.196Z,98676.66
2023-02-11T08:50:39.121Z,98674.81
2023-02-11T08:53:09.841Z,98666.31
2023-02-11T08:55:42.919Z,98662.78
2023-02-11T08:58:13.517Z,98662.66
2023-02-11T09:00:45.594Z,98657.47
2023-02-11T09:03:16.744Z,98651.06
2023-02-11T09:05:48.247Z,98646.47
2023-02-11T09:08:19.516Z,98644.28
2023-02-11T09:10:52.873Z,98643.41
2023-02-11T09:13:23.656Z,98631.16
2023-02-11T09:15:54.320Z,98625.81
2023-02-11T09:18:24.966Z,98625.47
2023-02-11T09:20:55.576Z,98627.56
2023-02-11T09:23:26.224Z,98626.47
2023-02-11T09:25:59.278Z,98619.38
2023-02-11T09:28:29.924Z,98606.84
2023-02-11T09:31:00.608Z,98602.09
2023-02-11T09:33:31.338Z,98609.84
2023-02-11T09:36:03.920Z,98603.09
2023-02-11T09:38:34.789Z,98598.06
2023-02-11T09:41:08.791Z,98589.81
2023-02-11T09:43:46.708Z,98587.06
2023-02-11T09:46:20.688Z,98581.97
2023-02-11T09:48:53.928Z,98581.06
2023-02-11T09:51:36.758Z,98572.69
2023-02-11T09:54:14.904Z,98572.78
2023-02-11T09:56:48.130Z,98566.00
2023-02-11T09:59:20.445Z,98557.22
2023-02-11T10:01:54.003Z,98549.13
2023-02-11T10:04:42.705Z,98542.00
2023-02-11T10:07:23.204Z,98537.34
2023-02-11T10:10:06.402Z,98540.66
2023-02-11T10:12:54.347Z,98536.38
2023-02-11T10:15:32.152Z,98533.47
2023-02-11T10:18:19.573Z,98534.56
2023-02-11T10:21:01.813Z,98529.53
2023-02-11T10:23:38.039Z,98525.00
2023-02-11T10:26:15.900Z,98516.78
2023-02-11T10:28:51.607Z,98511.31
2023-02-11T10:31:30.256Z,98509.44
2023-02-11T10:34:06.286Z,98504.06
2023-02-11T10:36:39.822Z,98496.97
2023-02-11T10:39:21.561Z,98475.94
2023-02-11T10:41:55.685Z,98478.84
2023-02-11T10:44:34.179Z,98487.81
2023-02-11T10:47:08.579Z,98481.22
2023-02-11T10:49:43.451Z,98472.03
2023-02-11T10:52:21.662Z,98462.91
2023-02-11T10:55:02.961Z,98448.50
2023-02-11T10:57:40.163Z,98449.94
2023-02-11T11:00:39.326Z,98448.75
2023-02-11T11:03:26.034Z,98442.59
2023-02-11T11:05:59.940Z,98444.25
2023-02-11T11:08:42.898Z,98430.28
2023-02-11T11:11:15.124Z,98439.38
2023-02-11T11:13:58.581Z,98426.22
2023-02-11T11:16:33.310Z,98428.38
2023-02-11T11:19:23.261Z,98422.56
2023-02-11T11:21:55.611Z,98413.25
2023-02-11T11:24:30.279Z,98415.53
2023-02-11T11:27:03.970Z,98403.69
2023-02-11T11:29:37.839Z,98405.03
2023-02-11T11:32:19.480Z,98400.75
2023-02-11T11:34:54.270Z,98399.56
2023-02-11T11:37:29.396Z,98401.97
2023-02-11T11:40:03.462Z,98397.50
2023-02-11T11:42:36.697Z,98400.53
2023-02-11T11:45:26.032Z,98392.66
2023-02-11T11:48:02.792Z,98386.63
2023-02-11T11:50:38.923Z,98389.44
2023-02-11T11:53:17.034Z,98381.00
2023-02-11T11:55:51.480Z,98379.78
2023-02-11T11:58:24.350Z,98382.28
2023-02-11T12:01:01.906Z,98378.03
2023-02-11T12:04:09.186Z,98376.34
2023-02-11T12:06:48.814Z,98373.00
2023-02-11T12:09:27.992Z,98358.28
2023-02-11T12:12:15.795Z,98366.25
2023-02-11T12:14:57.708Z,98363.16
2023-02-11T12:17:47.582Z,98362.78
2023-02-11T12:20:34.576Z,98359.97
2023-02-11T12:23:24.014Z,98357.13
2023-02-11T12:26:02.253Z,98351.03
2023-02-11T12:28:42.050Z,98350.44
2023-02-11T12:31:22.406Z,98345.56
2023-02-11T12:34:10.698Z,98339.47
2023-02-11T12:36:57.549Z,98342.34
2023-02-11T12:39:43.334Z,98343.66
2023-02-11T12:42:49.442Z,98335.75
2023-02-11T12:45:29.695Z,98331.44
2023-02-11T12:48:25.716Z,98325.53
2023-02-11T12:51:04.765Z,98325.13
2023-02-11T12:54:06.847Z,98318.41
2023-02-11T12:56:43.295Z,98319.34
2023-02-11T12:59:20.392Z,98323.00
2023-02-11T13:01:54.362Z,98312.03
2023-02-11T13:04:31.599Z,98317.59
2023-02-11T13:07:08.738Z,98305.50
2023-02-11T13:09:47.028Z,98307.47
2023-02-11T13:12:31.192Z,98309.44
2023-02-11T13:15:06.588Z,98303.81
2023-02-11T13:17:47.134Z,98297.34
2023-02-11T13:20:27.770Z,98294.13
2023-02-11T13:23:04.020Z,98292.25
2023-02-11T13:25:44.795Z,98289.34
2023-02-11T13:28:36.819Z,98294.81
2023-02-11T13:31:08.965Z,98294.31
2023-02-11T13:33:43.280Z,98291.16
2023-02-11T13:36:17.905Z,98295.38
2023-02-11T13:38:57.701Z,98283.31
2023-02-11T13:41:36.966Z,98280.00
2023-02-11T13:44:22.697Z,98284.75
2023-02-11T13:46:57.468Z,98283.81
2023-02-11T13:49:32.110Z,98272.19
2023-02-11T13:52:04.577Z,98263.81
2023-02-11T13:54:40.429Z,98259.19
2023-02-11T13:57:33.252Z,98254.28
2023-02-11T14:00:06.354Z,98250.75
2023-02-11T14:02:52.329Z,98242.28
2023-02-11T14:05:46.567Z,98230.97
2023-02-11T14:08:39.896Z,98237.97
2023-02-11T14:11:27.656Z,98240.03
2023-02-11T14:14:24.095Z,98235.88
2023-02-11T14:17:23.876Z,98235.09
2023-02-11T14:19:54.708Z,98228.75
2023-02-11T14:22:28.993Z,98219.19
2023-02-11T14:25:02.433Z,98222.22
2023-02-11T14:27:41.569Z,98220.50
2023-02-11T14:30:35.258Z,98214.06
2023-02-11T14:33:22.774Z,98211.47
2023-02-11T14:36:06.010Z,98215.28
2023-02-11T14:38:45.632Z,98216.97
2023-02-11T14:41:22.756Z,98215.09
2023-02-11T14:43:55.815Z,98206.94
2023-02-11T14:46:30.993Z,98208.31
2023-02-11T14:49:04.591Z,98206.38
2023-02-11T14:51:39.239Z,98214.50
2023-02-11T14:54:17.128Z,98206.47
2023-02-11T14:56:48.250Z,98212.41
2023-02-11T14:59:22.176Z,98210.72
2023-02-11T15:01:57.376Z,98210.56
2023-02-11T15:04:31.098Z,98195.72
2023-02-11T15:07:06.629Z,98203.31
2023-02-11T15:09:40.333Z,98199.09
2023-02-11T15:12:20.501Z,98204.19
2023-02-11T15:14:53.718Z,98203.91
2023-02-11T15:17:29.236Z,98202.97
2023-02-11T15:20:01.217Z,98197.13
2023-02-11T15:22:37.033Z,98193.53
2023-02-11T15:25:16.512Z,98197.16
2023-02-11T15:27:48.594Z,98194.25
2023-02-11T15:30:29.965Z,98192.22
2023-02-11T15:33:06.257Z,98189.34
2023-02-11T15:35:41.275Z,98195.91
2023-02-11T15:38:16.104Z,98191.06
2023-02-11T15:40:56.053Z,98197.16
2023-02-11T15:43:26.444Z,98187.34
2023-02-11T15:46:03.285Z,98195.47
2023-02-11T15:48:40.991Z,98200.78
2023-02-11T15:51:22.155Z,98192.16
2023-02-11T15:53:57.173Z,98193.94
2023-02-11T15:56:34.657Z,98190.81
2023-02-11T15:59:19.236Z,98191.72
2023-02-11T16:01:51.711Z,98197.44
2023-02-11T16:04:27.582Z,98197.41
2023-02-11T16:06:59.278Z,98201.81
2023-02-11T16:09:36.089Z,98205.41
2023-02-11T16:12:09.778Z,98204.63
2023-02-11T16:14:40.312Z,98203.94
2023-02-11T16:17:14.349Z,98202.41
2023-02-11T16:19:51.710Z,98197.44
2023-02-11T16:22:25.965Z,98189.16
2023-02-11T16:25:00.376Z,98175.88
2023-02-11T16:27:36.574Z,98189.34
2023-02-11T16:30:08.078Z,98185.50
2023-02-11T16:32:38.739Z,98180.84
2023-02-11T16:35:15.434Z,98180.53
2023-02-11T16:37:45.906Z,98182.06
2023-02-11T16:40:17.222Z,98181.06
2023-02-11T16:42:47.785Z,98178.38
2023-02-11T16:45:18.864Z,98177.38
2023-02-11T16:47:49.551Z,98173.00
2023-02-11T16:53:44.581Z,98172.16
2023-02-11T16:56:19.432Z,98180.00
2023-02-11T16:58:49.912Z,98171.41
2023-02-11T17:01:20.499Z,98173.81
2023-02-11T17:03:51.721Z,98166.53
2023-02-11T17:06:24.472Z,98157.97
2023-02-11T17:08:57.611Z,98175.59
2023-02-11T17:11:28.417Z,98172.94
2023-02-11T17:13:58.910Z,98174.09
2023-02-11T17:16:30.125Z,98176.50
2023-02-11T17:19:00.867Z,98174.38
2023-02-11T17:21:32.293Z,98177.28
2023-02-11T17:24:05.528Z,98175.13
2023-02-11T17:26:37.120Z,98175.75
2023-02-11T17:29:08.447Z,98168.66
2023-02-11T17:31:39.755Z,98162.53
2023-02-11T17:34:10.795Z,98168.72
2023-02-11T17:36:41.587Z,98171.63
2023-02-11T17:39:15.494Z,98170.50
2023-02-11T17:41:46.087Z,98171.88
2023-02-11T17:44:17.195Z,98166.31
2023-02-11T17:46:47.930Z,98171.88
2023-02-11T17:49:18.492Z,98179.56
2023-02-11T17:51:49.953Z,98181.19
2023-02-11T17:54:23.565Z,98176.56
2023-02-11T17:56:57.813Z,98179.25
2023-02-11T17:59:31.872Z,98186.66
2023-02-11T18:02:02.526Z,98183.72
2023-02-11T18:04:33.352Z,98179.00
2023-02-11T18:07:04.739Z,98190.16
2023-02-11T18:09:39.938Z,98171.41
2023-02-11T18:12:11.446Z,98196.31
2023-02-11T18:14:42.598Z,98185.72
2023-02-11T18:17:13.532Z,98181.19
2023-02-11T18:19:44.348Z,98191.94
2023-02-11T18:22:15.449Z,98189.75
2023-02-11T18:24:49.162Z,98174.84
2023-02-11T18:27:19.920Z,98186.31
2023-02-11T18:29:50.778Z,98196.09
2023-02-11T18:32:21.431Z,98191.09
2023-02-11T18:34:51.920Z,98190.47
2023-02-11T18:37:22.557Z,98182.97
2023-02-11T18:39:55.988Z,98178.94
2023-02-11T18:42:26.596Z,98185.38
2023-02-11T18:44:57.244Z,98178.84
2023-02-11T18:47:27.921Z,98176.63
2023-02-11T18:49:58.431Z,98177.94
2023-02-11T18:52:29.037Z,98170.75
2023-02-11T18:55:02.213Z,98164.66
2023-02-11T18:57:33.838Z,98155.41
2023-02-11T19:00:04.427Z,98159.56
2023-02-11T19:02:35.412Z,98162.84
2023-02-11T19:05:06.681Z,98154.84
2023-02-11T19:07:37.407Z,98158.91
2023-02-11T19:10:11.565Z,98160.44
2023-02-11T19:12:43.477Z,98154.94
2023-02-11T19:15:14.488Z,98158.16
2023-02-11T19:17:45.203Z,98154.66
2023-02-11T19:20:15.803Z,98151.75
2023-02-11T19:22:47.369Z,98155.06
2023-02-11T19:25:20.605Z,98149.06
2023-02-11T19:27:51.245Z,98150.78
2023-02-11T19:30:22.159Z,98139.66
2023-02-11T19:32:56.134Z,98135.75
2023-02-11T19:35:27.366Z,98117.50
2023-02-11T19:37:58.029Z,98132.59
2023-02-11T19:40:31.220Z,98138.41
2023-02-11T19:43:01.981Z,98133.03
2023-02-11T19:45:32.488Z,98122.72
2023-02-11T19:48:03.077Z,98135.56
2023-02-11T19:50:33.728Z,98126.75
2023-02-11T19:53:05.241Z,98130.47
2023-02-11T19:55:40.424Z,98121.31
2023-02-11T19:58:11.197Z,98122.97
2023-02-11T20:00:42.201Z,98122.94
2023-02-11T20:03:13.264Z,98118.47
2023-02-11T20:05:47.371Z,98115.06
2023-02-11T20:08:18.793Z,98112.78
2023-02-11T20:10:51.977Z,98108.09
2023-02-11T20:13:23.210Z,98103.31
2023-02-11T20:15:54.057Z,98096.13
2023-02-11T20:18:25.111Z,98101.72
2023-02-11T20:20:55.689Z,98095.00
2023-02-11T20:23:26.238Z,98086.44
2023-02-11T20:25:59.539Z,98083.94
2023-02-11T20:28:30.304Z,98090.09
2023-02-11T20:31:01.194Z,98078.50
2023-02-11T20:33:32.881Z,98076.41
2023-02-11T20:36:05.314Z,98066.97
2023-02-11T20:38:36.071Z,98070.72
2023-02-11T20:41:14.007Z,98062.69
2023-02-11T20:43:46.158Z,98064.00
2023-02-11T20:46:18.350Z,98054.22
2023-02-11T20:48:49.415Z,98049.16
2023-02-11T20:51:23.437Z,98053.78
2023-02-11T20:53:55.100Z,98043.72
2023-02-11T20:56:30.337Z,98043.44
2023-02-11T20:59:02.371Z,98036.84
2023-02-11T21:01:35.422Z,98041.09
2023-02-11T21:04:08.467Z,98032.16
2023-02-11T21:06:41.382Z,98025.31
2023-02-11T21:09:13.913Z,98031.59
2023-02-11T21:11:46.987Z,98019.69
2023-02-11T21:14:18.591Z,98022.66
2023-02-11T21:16:49.414Z,98021.13
2023-02-11T21:19:21.446Z,98015.31
2023-02-11T21:21:52.199Z,98014.56
2023-02-11T21:24:23.174Z,98011.25
2023-02-11T21:26:56.358Z,98013.00
2023-02-11T21:29:26.992Z,98005.31
2023-02-11T21:31:57.633Z,98007.13
2023-02-11T21:34:28.310Z,97995.97
2023-02-11T21:36:58.881Z,97980.44
2023-02-11T21:39:29.529Z,97980.38
2023-02-11T21:42:02.721Z,97980.31
2023-02-11T21:44:33.685Z,97968.25
2023-02-11T21:47:04.530Z,97958.00
2023-02-11T21:49:35.126Z,97945.81
2023-02-11T21:52:05.606Z,97952.22
2023-02-11T21:54:36.280Z,97938.03
2023-02-11T21:57:09.489Z,97945.84
2023-02-11T21:59:40.059Z,97940.03
2023-02-11T22:02:11.619Z,97937.69
2023-02-11T22:04:42.810Z,97945.06
2023-02-11T22:07:13.368Z,97947.47
2023-02-11T22:09:44.842Z,97933.00
2023-02-11T22:12:18.123Z,97933.19
2023-02-11T22:14:48.692Z,97930.09
2023-02-11T22:17:19.216Z,97931.41
2023-02-11T22:19:49.809Z,97927.38
2023-02-11T22:22:21.427Z,97925.72
2023-02-11T22:24:52.144Z,97934.38
2023-02-11T22:27:25.787Z,97936.97
2023-02-11T22:29:56.305Z,97933.47
2023-02-11T22:32:27.066Z,97940.34
2023-02-11T22:34:57.694Z,97931.66
2023-02-11T22:37:28.275Z,97930.78
2023-02-11T22:39:58.866Z,97940.28
2023-02-11T22:42:32.017Z,97942.84
2023-02-11T22:45:03.310Z,97942.84
2023-02-11T22:47:36.496Z,97946.22
2023-02-11T22:50:08.105Z,97934.94
2023-02-11T22:52:39.472Z,97930.56
2023-02-11T22:55:10.648Z,97950.41
2023-02-11T22:57:45.359Z,97934.06
2023-02-11T23:00:17.777Z,97935.78
2023-02-11T23:02:49.100Z,97949.63
2023-02-11T23:05:20.091Z,97949.63
2023-02-11T23:07:50.638Z,97952.25
2023-02-11T23:10:22.461Z,97947.16
2023-02-11T23:12:56.549Z,97949.94
2023-02-11T23:15:27.492Z,97935.38
2023-02-11T23:17:58.210Z,97941.34
2023-02-11T23:20:29.068Z,97943.75
2023-02-11T23:22:59.640Z,97942.63
2023-02-11T23:25:30.651Z,97954.06
2023-02-11T23:28:04.086Z,97945.69
2023-02-11T23:30:35.448Z,97954.25
2023-02-11T23:33:06.394Z,97947.38
2023-02-11T23:35:37.440Z,97943.34
2023-02-11T23:38:08.450Z,97954.13
2023-02-11T23:40:39.106Z,97937.88
2023-02-11T23:43:12.491Z,97934.47
2023-02-11T23:45:43.088Z,97932.56
2023-02-11T23:48:13.919Z,97925.97
2023-02-11T23:50:45.029Z,97933.31
2023-02-11T23:53:15.877Z,97926.09
2023-02-11T23:55:47.757Z,97923.44
2023-02-11T23:58:20.924Z,97916.59
